PWSweather.com
Personal Weather Stations
Station Observations
THAIWX
Pa Daet, Chiang MaiTH 50100

Pa DaetChiang MaiTH 50100

Lat: 18.766158, Lon: 98.97553

Elevation: 1007

Station Type: LaCrosse WS2315 (modified)

http://www.ThaiWx.yolasite.com/

High Low Average
Temperature 91.8°F33.2°C 74.5°F23.6°C 81.8°F27.7°C
Dew Point 76.7°F24.8°C 68.3°F20.2°C 73.1°F22.8°C
Winds 2.9 mph 4.7 kmh Calm Calm Calm SCalm S
Wind Gusts 2.9 mph4.7 kmh -- --
Humidity 82% 56% 75%
Pressure 29.94 in1013.9 mb 29.78 in1008.5 mb -
Precipitation 1.02 in25.9 mm - -
Hour Temp Dew Point Humidity Winds Wind Gusts Pressure Precip Precip Rate Daily Precip Total
12:04 AM 75.7°F24.3°C 69.5°F20.8°C 81% Calm Calm -- 29.91 in1012.9 mb 0.00 in0.0 mm 0.00 in0.0 mm 0.00 in0.0 mm
12:08 AM 75.6°F24.2°C 69.4°F20.8°C 81% Calm Calm -- 29.91 in1012.9 mb 0.00 in0.0 mm 0.00 in0.0 mm 0.00 in0.0 mm
12:12 AM 75.7°F24.3°C 69.9°F21.1°C 82% Calm Calm -- 29.90 in1012.5 mb 0.00 in0.0 mm 0.00 in0.0 mm 0.00 in0.0 mm
12:19 AM 75.6°F24.2°C 69.4°F20.8°C 81% Calm Calm -- 29.90 in1012.5 mb 0.00 in0.0 mm 0.00 in0.0 mm 0.00 in0.0 mm
12:23 AM 75.7°F24.3°C 69.9°F21.1°C 82% Calm Calm -- 29.90 in1012.5 mb 0.00 in0.0 mm 0.00 in0.0 mm 0.00 in0.0 mm
12:29 AM 75.6°F24.2°C 69.9°F21.1°C 81% Calm Calm -- 29.90 in1012.5 mb 0.00 in0.0 mm 0.00 in0.0 mm 0.00 in0.0 mm
12:34 AM 75.7°F24.3°C 69.9°F21.1°C 82% Calm Calm -- 29.90 in1012.5 mb 0.00 in0.0 mm 0.00 in0.0 mm 0.00 in0.0 mm
12:38 AM 75.7°F24.3°C 69.9°F21.1°C 82% Calm Calm -- 29.91 in1012.9 mb 0.00 in0.0 mm 0.00 in0.0 mm 0.00 in0.0 mm
12:44 AM 75.7°F24.3°C 69.9°F21.1°C 82% Calm Calm -- 29.90 in1012.5 mb 0.00 in0.0 mm 0.00 in0.0 mm 0.00 in0.0 mm
12:49 AM 75.7°F24.3°C 69.9°F21.1°C 82% Calm Calm -- 29.90 in1012.5 mb 0.00 in0.0 mm 0.00 in0.0 mm 0.00 in0.0 mm
12:55 AM 75.7°F24.3°C 69.9°F21.1°C 82% Calm Calm -- 29.90 in1012.5 mb 0.00 in0.0 mm 0.00 in0.0 mm 0.00 in0.0 mm
01:00 AM 75.7°F24.3°C 69.9°F21.1°C 82% Calm Calm -- 29.89 in1012.2 mb 0.00 in0.0 mm 0.00 in0.0 mm 0.00 in0.0 mm
01:06 AM 75.6°F24.2°C 69.9°F21.1°C 81% Calm Calm -- 29.89 in1012.2 mb 0.00 in0.0 mm 0.00 in0.0 mm 0.00 in0.0 mm
01:10 AM 75.6°F24.2°C 69.4°F20.8°C 81% Calm Calm -- 29.89 in1012.2 mb 0.00 in0.0 mm 0.00 in0.0 mm 0.00 in0.0 mm
01:17 AM 75.7°F24.3°C 69.9°F21.1°C 82% Calm Calm -- 29.89 in1012.2 mb 0.00 in0.0 mm 0.00 in0.0 mm 0.00 in0.0 mm
01:21 AM 75.6°F24.2°C 69.9°F21.1°C 81% Calm Calm -- 29.89 in1012.2 mb 0.00 in0.0 mm 0.00 in0.0 mm 0.00 in0.0 mm
01:27 AM 75.6°F24.2°C 69.4°F20.8°C 81% Calm Calm -- 29.89 in1012.2 mb 0.00 in0.0 mm 0.00 in0.0 mm 0.00 in0.0 mm
01:34 AM 75.6°F24.2°C 69.4°F20.8°C 81% Calm Calm -- 29.89 in1012.2 mb 0.00 in0.0 mm 0.00 in0.0 mm 0.00 in0.0 mm
01:38 AM 75.6°F24.2°C 69.4°F20.8°C 81% Calm Calm -- 29.89 in1012.2 mb 0.00 in0.0 mm 0.00 in0.0 mm 0.00 in0.0 mm
01:42 AM 75.6°F24.2°C 69.4°F20.8°C 81% Calm Calm -- 29.89 in1012.2 mb 0.00 in0.0 mm 0.00 in0.0 mm 0.00 in0.0 mm
01:49 AM 75.6°F24.2°C 69.4°F20.8°C 81% Calm Calm -- 29.89 in1012.2 mb 0.00 in0.0 mm 0.00 in0.0 mm 0.00 in0.0 mm
01:53 AM 75.6°F24.2°C 69.4°F20.8°C 81% Calm Calm -- 29.88 in1011.9 mb 0.00 in0.0 mm 0.00 in0.0 mm 0.00 in0.0 mm
02:00 AM 75.6°F24.2°C 69.4°F20.8°C 81% Calm Calm -- 29.88 in1011.9 mb 0.00 in0.0 mm 0.00 in0.0 mm 0.00 in0.0 mm
02:04 AM 75.6°F24.2°C 69.4°F20.8°C 81% Calm Calm -- 29.88 in1011.9 mb 0.00 in0.0 mm 0.00 in0.0 mm 0.00 in0.0 mm
02:10 AM 75.7°F24.3°C 69.9°F21.1°C 82% Calm Calm -- 29.88 in1011.9 mb 0.00 in0.0 mm 0.00 in0.0 mm 0.00 in0.0 mm
02:15 AM 75.6°F24.2°C 69.4°F20.8°C 81% Calm Calm -- 29.87 in1011.5 mb 0.00 in0.0 mm 0.00 in0.0 mm 0.00 in0.0 mm
02:21 AM 75.6°F24.2°C 69.4°F20.8°C 81% Calm Calm -- 29.87 in1011.5 mb 0.00 in0.0 mm 0.00 in0.0 mm 0.00 in0.0 mm
02:25 AM 75.7°F24.3°C 69.4°F20.8°C 82% Calm Calm -- 29.87 in1011.5 mb 0.00 in0.0 mm 0.00 in0.0 mm 0.00 in0.0 mm
02:32 AM 75.7°F24.3°C 69.9°F21.1°C 82% Calm Calm -- 29.86 in1011.2 mb 0.00 in0.0 mm 0.00 in0.0 mm 0.00 in0.0 mm
02:36 AM 75.7°F24.3°C 69.9°F21.1°C 82% Calm Calm -- 29.86 in1011.2 mb 0.00 in0.0 mm 0.00 in0.0 mm 0.00 in0.0 mm
02:43 AM 75.7°F24.3°C 69.9°F21.1°C 82% Calm Calm -- 29.86 in1011.2 mb 0.00 in0.0 mm 0.00 in0.0 mm 0.00 in0.0 mm
02:47 AM 75.6°F24.2°C 69.4°F20.8°C 81% Calm Calm -- 29.86 in1011.2 mb 0.00 in0.0 mm 0.00 in0.0 mm 0.00 in0.0 mm
02:51 AM 75.6°F24.2°C 69.4°F20.8°C 81% Calm Calm -- 29.86 in1011.2 mb 0.00 in0.0 mm 0.00 in0.0 mm 0.00 in0.0 mm
02:58 AM 75.4°F24.1°C 69.2°F20.7°C 81% Calm Calm -- 29.86 in1011.2 mb 0.00 in0.0 mm 0.00 in0.0 mm 0.00 in0.0 mm
03:02 AM 75.4°F24.1°C 69.2°F20.7°C 81% Calm Calm -- 29.86 in1011.2 mb 0.00 in0.0 mm 0.00 in0.0 mm 0.00 in0.0 mm
03:06 AM 75.4°F24.1°C 69.2°F20.7°C 81% Calm Calm -- 29.86 in1011.2 mb 0.00 in0.0 mm 0.00 in0.0 mm 0.00 in0.0 mm
03:15 AM 75.4°F24.1°C 69.2°F20.7°C 81% Calm Calm -- 29.86 in1011.2 mb 0.00 in0.0 mm 0.00 in0.0 mm 0.00 in0.0 mm
03:19 AM 75.4°F24.1°C 69.2°F20.7°C 81% Calm Calm -- 29.86 in1011.2 mb 0.00 in0.0 mm 0.00 in0.0 mm 0.00 in0.0 mm
03:25 AM 75.2°F24.0°C 69.1°F20.6°C 81% Calm Calm -- 29.86 in1011.2 mb 0.00 in0.0 mm 0.00 in0.0 mm 0.00 in0.0 mm
03:30 AM 75.2°F24.0°C 69.1°F20.6°C 81% Calm Calm -- 29.86 in1011.2 mb 0.00 in0.0 mm 0.00 in0.0 mm 0.00 in0.0 mm
03:36 AM 75.2°F24.0°C 69.1°F20.6°C 81% Calm Calm -- 29.86 in1011.2 mb 0.00 in0.0 mm 0.00 in0.0 mm 0.00 in0.0 mm
03:43 AM 75.0°F23.9°C 68.9°F20.5°C 81% Calm Calm -- 29.86 in1011.2 mb 0.00 in0.0 mm 0.00 in0.0 mm 0.00 in0.0 mm
03:47 AM 75.0°F23.9°C 68.9°F20.5°C 81% Calm Calm -- 29.86 in1011.2 mb 0.00 in0.0 mm 0.00 in0.0 mm 0.00 in0.0 mm
03:51 AM 75.0°F23.9°C 68.9°F20.5°C 81% Calm Calm -- 29.86 in1011.2 mb 0.00 in0.0 mm 0.00 in0.0 mm 0.00 in0.0 mm
03:58 AM 75.4°F24.1°C 69.2°F20.7°C 81% Calm Calm -- 29.86 in1011.2 mb 0.00 in0.0 mm 0.00 in0.0 mm 0.00 in0.0 mm
04:04 AM 75.4°F24.1°C 69.2°F20.7°C 81% Calm Calm -- 29.87 in1011.5 mb 0.00 in0.0 mm 0.00 in0.0 mm 0.00 in0.0 mm
04:08 AM 75.4°F24.1°C 69.2°F20.7°C 81% Calm Calm -- 29.86 in1011.2 mb 0.00 in0.0 mm 0.00 in0.0 mm 0.00 in0.0 mm
04:13 AM 75.4°F24.1°C 69.2°F20.7°C 81% Calm Calm -- 29.86 in1011.2 mb 0.00 in0.0 mm 0.00 in0.0 mm 0.00 in0.0 mm
04:19 AM 75.4°F24.1°C 69.2°F20.7°C 81% Calm Calm -- 29.86 in1011.2 mb 0.00 in0.0 mm 0.00 in0.0 mm 0.00 in0.0 mm
04:23 AM 75.4°F24.1°C 69.2°F20.7°C 81% Calm Calm -- 29.86 in1011.2 mb 0.00 in0.0 mm 0.00 in0.0 mm 0.00 in0.0 mm
04:28 AM 75.4°F24.1°C 69.2°F20.7°C 81% Calm Calm -- 29.86 in1011.2 mb 0.00 in0.0 mm 0.00 in0.0 mm 0.00 in0.0 mm
04:34 AM 75.4°F24.1°C 69.2°F20.7°C 81% Calm Calm -- 29.86 in1011.2 mb 0.00 in0.0 mm 0.00 in0.0 mm 0.00 in0.0 mm
04:38 AM 75.4°F24.1°C 69.2°F20.7°C 81% Calm Calm -- 29.86 in1011.2 mb 0.00 in0.0 mm 0.00 in0.0 mm 0.00 in0.0 mm
04:45 AM 75.4°F24.1°C 69.2°F20.7°C 81% Calm Calm -- 29.86 in1011.2 mb 0.00 in0.0 mm 0.00 in0.0 mm 0.00 in0.0 mm
04:49 AM 75.2°F24.0°C 69.2°F20.7°C 81% Calm Calm -- 29.86 in1011.2 mb 0.00 in0.0 mm 0.00 in0.0 mm 0.00 in0.0 mm
04:53 AM 75.2°F24.0°C 69.2°F20.7°C 81% Calm Calm -- 29.86 in1011.2 mb 0.00 in0.0 mm 0.00 in0.0 mm 0.00 in0.0 mm
05:00 AM 75.2°F24.0°C 69.1°F20.6°C 81% Calm Calm -- 29.86 in1011.2 mb 0.00 in0.0 mm 0.00 in0.0 mm 0.00 in0.0 mm
05:06 AM 75.4°F24.1°C 69.1°F20.6°C 81% Calm Calm -- 29.86 in1011.2 mb 0.00 in0.0 mm 0.00 in0.0 mm 0.00 in0.0 mm
05:11 AM 75.4°F24.1°C 69.2°F20.7°C 81% Calm Calm -- 29.86 in1011.2 mb 0.00 in0.0 mm 0.00 in0.0 mm 0.00 in0.0 mm
05:15 AM 75.2°F24.0°C 69.1°F20.6°C 81% Calm Calm -- 29.86 in1011.2 mb 0.00 in0.0 mm 0.00 in0.0 mm 0.00 in0.0 mm
05:20 AM 75.4°F24.1°C 69.2°F20.7°C 81% Calm Calm -- 29.86 in1011.2 mb 0.00 in0.0 mm 0.00 in0.0 mm 0.00 in0.0 mm
05:25 AM 75.4°F24.1°C 69.2°F20.7°C 81% Calm Calm -- 29.86 in1011.2 mb 0.00 in0.0 mm 0.00 in0.0 mm 0.00 in0.0 mm
05:31 AM 75.4°F24.1°C 69.2°F20.7°C 81% Calm Calm -- 29.87 in1011.5 mb 0.00 in0.0 mm 0.00 in0.0 mm 0.00 in0.0 mm
05:35 AM 75.4°F24.1°C 69.2°F20.7°C 81% Calm Calm -- 29.87 in1011.5 mb 0.00 in0.0 mm 0.00 in0.0 mm 0.00 in0.0 mm
05:42 AM 75.4°F24.1°C 69.2°F20.7°C 81% Calm Calm -- 29.88 in1011.9 mb 0.00 in0.0 mm 0.00 in0.0 mm 0.00 in0.0 mm
05:46 AM 75.4°F24.1°C 69.2°F20.7°C 81% Calm Calm -- 29.88 in1011.9 mb 0.00 in0.0 mm 0.00 in0.0 mm 0.00 in0.0 mm
05:52 AM 75.4°F24.1°C 69.2°F20.7°C 81% Calm Calm -- 29.88 in1011.9 mb 0.00 in0.0 mm 0.00 in0.0 mm 0.00 in0.0 mm
05:57 AM 75.4°F24.1°C 69.2°F20.7°C 81% Calm Calm -- 29.88 in1011.9 mb 0.00 in0.0 mm 0.00 in0.0 mm 0.00 in0.0 mm
06:01 AM 75.4°F24.1°C 69.2°F20.7°C 81% Calm Calm -- 29.89 in1012.2 mb 0.00 in0.0 mm 0.00 in0.0 mm 0.00 in0.0 mm
06:07 AM 75.4°F24.1°C 69.2°F20.7°C 81% Calm Calm -- 29.89 in1012.2 mb 0.00 in0.0 mm 0.00 in0.0 mm 0.00 in0.0 mm
06:14 AM 75.4°F24.1°C 69.2°F20.7°C 81% Calm Calm -- 29.89 in1012.2 mb 0.00 in0.0 mm 0.00 in0.0 mm 0.00 in0.0 mm
06:18 AM 75.4°F24.1°C 69.2°F20.7°C 81% Calm Calm -- 29.89 in1012.2 mb 0.00 in0.0 mm 0.00 in0.0 mm 0.00 in0.0 mm
06:25 AM 75.6°F24.2°C 69.4°F20.8°C 81% Calm Calm -- 29.89 in1012.2 mb 0.00 in0.0 mm 0.00 in0.0 mm 0.00 in0.0 mm
06:29 AM 75.7°F24.3°C 69.5°F20.8°C 81% Calm Calm -- 29.90 in1012.5 mb 0.00 in0.0 mm 0.00 in0.0 mm 0.00 in0.0 mm
06:33 AM 75.7°F24.3°C 69.5°F20.8°C 81% Calm Calm -- 29.90 in1012.5 mb 0.00 in0.0 mm 0.00 in0.0 mm 0.00 in0.0 mm
06:40 AM 75.7°F24.3°C 69.5°F20.8°C 81% Calm Calm -- 29.90 in1012.5 mb 0.00 in0.0 mm 0.00 in0.0 mm 0.00 in0.0 mm
06:44 AM 75.9°F24.4°C 69.7°F20.9°C 81% Calm Calm -- 29.90 in1012.5 mb 0.00 in0.0 mm 0.00 in0.0 mm 0.00 in0.0 mm
06:48 AM 75.9°F24.4°C 69.7°F20.9°C 81% Calm Calm -- 29.90 in1012.5 mb 0.02 in0.5 mm 0.30 in7.6 mm 0.02 in0.5 mm
06:54 AM 75.9°F24.4°C 69.7°F20.9°C 81% Calm Calm -- 29.90 in1012.5 mb 0.02 in0.5 mm 0.00 in0.0 mm 0.02 in0.5 mm
06:59 AM 75.9°F24.4°C 69.7°F20.9°C 81% Calm Calm -- 29.90 in1012.5 mb 0.02 in0.5 mm 0.00 in0.0 mm 0.02 in0.5 mm
07:05 AM 75.9°F24.4°C 69.7°F20.9°C 81% Calm Calm -- 29.90 in1012.5 mb 0.02 in0.5 mm 0.00 in0.0 mm 0.02 in0.5 mm
07:09 AM 75.9°F24.4°C 69.7°F20.9°C 81% Calm Calm -- 29.91 in1012.9 mb 0.02 in0.5 mm 0.00 in0.0 mm 0.02 in0.5 mm
07:14 AM 75.9°F24.4°C 69.7°F20.9°C 81% Calm Calm -- 29.91 in1012.9 mb 0.02 in0.5 mm 0.00 in0.0 mm 0.02 in0.5 mm
07:20 AM 76.1°F24.5°C 69.9°F21.1°C 81% Calm Calm -- 29.91 in1012.9 mb 0.02 in0.5 mm 0.00 in0.0 mm 0.02 in0.5 mm
07:25 AM 76.6°F24.8°C 70.4°F21.3°C 81% Calm Calm -- 29.91 in1012.9 mb 0.02 in0.5 mm 0.00 in0.0 mm 0.02 in0.5 mm
07:31 AM 76.6°F24.8°C 70.4°F21.3°C 81% Calm Calm -- 29.92 in1013.2 mb 0.02 in0.5 mm 0.00 in0.0 mm 0.02 in0.5 mm
07:35 AM 76.8°F24.9°C 70.9°F21.6°C 82% Calm Calm -- 29.91 in1012.9 mb 0.02 in0.5 mm 0.00 in0.0 mm 0.02 in0.5 mm
07:39 AM 76.8°F24.9°C 70.9°F21.6°C 82% Calm Calm -- 29.92 in1013.2 mb 0.02 in0.5 mm 0.00 in0.0 mm 0.02 in0.5 mm
07:46 AM 78.4°F25.8°C 72.5°F22.5°C 82% Calm Calm -- 29.92 in1013.2 mb 0.00 in0.0 mm 0.00 in0.0 mm 0.02 in0.5 mm
07:50 AM 78.1°F25.6°C 72.1°F22.3°C 82% Calm Calm -- 29.92 in1013.2 mb 0.00 in0.0 mm 0.00 in0.0 mm 0.02 in0.5 mm
07:56 AM 77.9°F25.5°C 72.0°F22.2°C 82% Calm Calm -- 29.93 in1013.5 mb 0.00 in0.0 mm 0.00 in0.0 mm 0.02 in0.5 mm
08:01 AM 77.7°F25.4°C 71.8°F22.1°C 82% Calm Calm -- 29.93 in1013.5 mb 0.00 in0.0 mm 0.00 in0.0 mm 0.02 in0.5 mm
08:05 AM 77.9°F25.5°C 72.0°F22.2°C 82% Calm Calm -- 29.93 in1013.5 mb 0.00 in0.0 mm 0.00 in0.0 mm 0.02 in0.5 mm
08:12 AM 78.1°F25.6°C 72.1°F22.3°C 82% Calm Calm -- 29.93 in1013.5 mb 0.00 in0.0 mm 0.00 in0.0 mm 0.02 in0.5 mm
08:16 AM 78.1°F25.6°C 72.1°F22.3°C 82% Calm Calm -- 29.94 in1013.9 mb 0.00 in0.0 mm 0.00 in0.0 mm 0.02 in0.5 mm
08:22 AM 78.1°F25.6°C 72.1°F22.3°C 82% Calm Calm -- 29.94 in1013.9 mb 0.00 in0.0 mm 0.00 in0.0 mm 0.02 in0.5 mm
08:26 AM 78.1°F25.6°C 72.1°F22.3°C 82% Calm Calm -- 29.94 in1013.9 mb 0.00 in0.0 mm 0.00 in0.0 mm 0.02 in0.5 mm
08:31 AM 78.4°F25.8°C 72.5°F22.5°C 82% Calm Calm -- 29.94 in1013.9 mb 0.00 in0.0 mm 0.00 in0.0 mm 0.02 in0.5 mm
08:37 AM 78.6°F25.9°C 72.7°F22.6°C 82% Calm Calm -- 29.94 in1013.9 mb 0.00 in0.0 mm 0.00 in0.0 mm 0.02 in0.5 mm
08:41 AM 78.6°F25.9°C 72.7°F22.6°C 82% Calm Calm -- 29.94 in1013.9 mb 0.00 in0.0 mm 0.00 in0.0 mm 0.02 in0.5 mm
08:48 AM 79.0°F26.1°C 73.0°F22.8°C 82% Calm Calm -- 29.94 in1013.9 mb 0.00 in0.0 mm 0.00 in0.0 mm 0.02 in0.5 mm
08:54 AM 79.3°F26.3°C 73.2°F22.9°C 82% Calm Calm -- 29.94 in1013.9 mb 0.00 in0.0 mm 0.00 in0.0 mm 0.02 in0.5 mm
08:58 AM 79.5°F26.4°C 73.6°F23.1°C 82% Calm Calm -- 29.94 in1013.9 mb 0.00 in0.0 mm 0.00 in0.0 mm 0.02 in0.5 mm
09:05 AM 79.5°F26.4°C 73.6°F23.1°C 82% Calm Calm -- 29.94 in1013.9 mb 0.00 in0.0 mm 0.00 in0.0 mm 0.02 in0.5 mm
09:09 AM 79.7°F26.5°C 73.7°F23.2°C 82% Calm Calm -- 29.94 in1013.9 mb 0.00 in0.0 mm 0.00 in0.0 mm 0.02 in0.5 mm
09:13 AM 79.9°F26.6°C 73.9°F23.3°C 82% Calm Calm -- 29.93 in1013.5 mb 0.00 in0.0 mm 0.00 in0.0 mm 0.02 in0.5 mm
09:20 AM 80.1°F26.7°C 73.9°F23.3°C 82% Calm Calm -- 29.93 in1013.5 mb 0.00 in0.0 mm 0.00 in0.0 mm 0.02 in0.5 mm
09:24 AM 80.2°F26.8°C 73.9°F23.3°C 81% Calm Calm -- 29.93 in1013.5 mb 0.00 in0.0 mm 0.00 in0.0 mm 0.02 in0.5 mm
09:31 AM 80.2°F26.8°C 73.9°F23.3°C 81% Calm Calm -- 29.93 in1013.5 mb 0.00 in0.0 mm 0.00 in0.0 mm 0.02 in0.5 mm
09:35 AM 80.4°F26.9°C 74.1°F23.4°C 81% Calm Calm -- 29.93 in1013.5 mb 0.00 in0.0 mm 0.00 in0.0 mm 0.02 in0.5 mm
09:41 AM 80.4°F26.9°C 73.8°F23.2°C 80% Calm Calm -- 29.93 in1013.5 mb 0.00 in0.0 mm 0.00 in0.0 mm 0.02 in0.5 mm
09:45 AM 80.4°F26.9°C 73.8°F23.2°C 80% Calm Calm -- 29.93 in1013.5 mb 0.00 in0.0 mm 0.00 in0.0 mm 0.02 in0.5 mm
09:50 AM 80.8°F27.1°C 74.1°F23.4°C 80% Calm Calm -- 29.92 in1013.2 mb 0.00 in0.0 mm 0.00 in0.0 mm 0.02 in0.5 mm
09:56 AM 81.0°F27.2°C 74.3°F23.5°C 80% Calm Calm -- 29.93 in1013.5 mb 0.00 in0.0 mm 0.00 in0.0 mm 0.02 in0.5 mm
10:00 AM 81.1°F27.3°C 74.5°F23.6°C 80% Calm Calm -- 29.92 in1013.2 mb 0.00 in0.0 mm 0.00 in0.0 mm 0.02 in0.5 mm
10:07 AM 81.3°F27.4°C 74.2°F23.4°C 79% Calm Calm -- 29.92 in1013.2 mb 0.00 in0.0 mm 0.00 in0.0 mm 0.02 in0.5 mm
10:11 AM 81.3°F27.4°C 74.2°F23.4°C 79% Calm Calm -- 29.92 in1013.2 mb 0.00 in0.0 mm 0.00 in0.0 mm 0.02 in0.5 mm
10:15 AM 81.5°F27.5°C 74.4°F23.6°C 79% Calm Calm -- 29.92 in1013.2 mb 0.00 in0.0 mm 0.00 in0.0 mm 0.02 in0.5 mm
10:22 AM 81.7°F27.6°C 74.2°F23.4°C 78% Calm Calm -- 29.92 in1013.2 mb 0.00 in0.0 mm 0.00 in0.0 mm 0.02 in0.5 mm
10:26 AM 81.9°F27.7°C 74.4°F23.6°C 78% Calm Calm -- 29.92 in1013.2 mb 0.00 in0.0 mm 0.00 in0.0 mm 0.02 in0.5 mm
10:32 AM 82.0°F27.8°C 74.6°F23.7°C 78% Calm Calm -- 29.92 in1013.2 mb 0.00 in0.0 mm 0.00 in0.0 mm 0.02 in0.5 mm
10:37 AM 82.2°F27.9°C 74.7°F23.7°C 78% Calm Calm -- 29.91 in1012.9 mb 0.00 in0.0 mm 0.00 in0.0 mm 0.02 in0.5 mm
10:41 AM 82.6°F28.1°C 75.1°F23.9°C 78% Calm Calm -- 29.91 in1012.9 mb 0.00 in0.0 mm 0.00 in0.0 mm 0.02 in0.5 mm
10:47 AM 82.8°F28.2°C 74.8°F23.8°C 77% Calm Calm -- 29.91 in1012.9 mb 0.00 in0.0 mm 0.00 in0.0 mm 0.02 in0.5 mm
10:52 AM 82.9°F28.3°C 75.0°F23.9°C 77% Calm Calm -- 29.91 in1012.9 mb 0.00 in0.0 mm 0.00 in0.0 mm 0.02 in0.5 mm
10:58 AM 83.3°F28.5°C 74.9°F23.8°C 76% Calm Calm -- 29.91 in1012.9 mb 0.00 in0.0 mm 0.00 in0.0 mm 0.02 in0.5 mm
11:02 AM 83.5°F28.6°C 75.1°F23.9°C 76% Calm Calm -- 29.91 in1012.9 mb 0.00 in0.0 mm 0.00 in0.0 mm 0.02 in0.5 mm
11:07 AM 83.5°F28.6°C 74.9°F23.8°C 76% Calm Calm -- 29.91 in1012.9 mb 0.00 in0.0 mm 0.00 in0.0 mm 0.02 in0.5 mm
11:13 AM 83.8°F28.8°C 75.4°F24.1°C 76% Calm Calm -- 29.90 in1012.5 mb 0.00 in0.0 mm 0.00 in0.0 mm 0.02 in0.5 mm
11:18 AM 84.0°F28.9°C 75.6°F24.2°C 76% Calm Calm -- 29.89 in1012.2 mb 0.00 in0.0 mm 0.00 in0.0 mm 0.02 in0.5 mm
11:25 AM 84.6°F29.2°C 75.6°F24.2°C 75% 0.4 mph W0.6 kmh W 0.4 mph0.6 kmh 29.89 in1012.2 mb 0.00 in0.0 mm 0.00 in0.0 mm 0.02 in0.5 mm
11:29 AM 84.9°F29.4°C 76.1°F24.5°C 75% Calm Calm 0.4 mph0.6 kmh 29.89 in1012.2 mb 0.00 in0.0 mm 0.00 in0.0 mm 0.02 in0.5 mm
11:35 AM 85.1°F29.5°C 75.7°F24.3°C 74% Calm Calm 0.4 mph0.6 kmh 29.89 in1012.2 mb 0.00 in0.0 mm 0.00 in0.0 mm 0.02 in0.5 mm
11:42 AM 85.8°F29.9°C 76.4°F24.7°C 74% Calm Calm -- 29.88 in1011.9 mb 0.00 in0.0 mm 0.00 in0.0 mm 0.02 in0.5 mm
11:46 AM 86.4°F30.2°C 76.7°F24.8°C 73% 0.9 mph SE1.4 kmh SE 0.9 mph1.4 kmh 29.88 in1011.9 mb 0.00 in0.0 mm 0.00 in0.0 mm 0.02 in0.5 mm
11:52 AM 86.4°F30.2°C 76.3°F24.6°C 72% Calm Calm 1.1 mph1.8 kmh 29.87 in1011.5 mb 0.00 in0.0 mm 0.00 in0.0 mm 0.02 in0.5 mm
11:57 AM 86.7°F30.4°C 76.2°F24.6°C 71% Calm Calm 1.1 mph1.8 kmh 29.87 in1011.5 mb 0.00 in0.0 mm 0.00 in0.0 mm 0.02 in0.5 mm
12:01 PM 87.1°F30.6°C 76.0°F24.4°C 70% Calm Calm -- 29.87 in1011.5 mb 0.00 in0.0 mm 0.00 in0.0 mm 0.02 in0.5 mm
12:07 PM 87.6°F30.9°C 75.7°F24.3°C 68% 0.2 mph WSW0.3 kmh WSW 0.2 mph0.3 kmh 29.86 in1011.2 mb 0.00 in0.0 mm 0.00 in0.0 mm 0.02 in0.5 mm
12:12 PM 87.6°F30.9°C 75.7°F24.3°C 68% Calm Calm 0.2 mph0.3 kmh 29.86 in1011.2 mb 0.00 in0.0 mm 0.00 in0.0 mm 0.02 in0.5 mm
12:18 PM 87.6°F30.9°C 75.3°F24.1°C 67% 0.7 mph SSE1.1 kmh SSE 0.7 mph1.1 kmh 29.86 in1011.2 mb 0.00 in0.0 mm 0.00 in0.0 mm 0.02 in0.5 mm
12:22 PM 87.4°F30.8°C 75.3°F24.1°C 67% 0.7 mph SSE1.1 kmh SSE 0.7 mph1.1 kmh 29.86 in1011.2 mb 0.00 in0.0 mm 0.00 in0.0 mm 0.02 in0.5 mm
12:27 PM 87.8°F31.0°C 75.5°F24.2°C 67% Calm Calm 1.3 mph2.1 kmh 29.86 in1011.2 mb 0.00 in0.0 mm 0.00 in0.0 mm 0.02 in0.5 mm
12:33 PM 88.3°F31.3°C 75.5°F24.2°C 66% Calm Calm 1.6 mph2.6 kmh 29.85 in1010.8 mb 0.00 in0.0 mm 0.00 in0.0 mm 0.02 in0.5 mm
12:37 PM 88.3°F31.3°C 75.5°F24.2°C 66% Calm Calm 1.6 mph2.6 kmh 29.86 in1011.2 mb 0.00 in0.0 mm 0.00 in0.0 mm 0.02 in0.5 mm
12:42 PM 88.7°F31.5°C 75.4°F24.1°C 65% 0.7 mph SW1.1 kmh SW 0.7 mph1.1 kmh 29.86 in1011.2 mb 0.00 in0.0 mm 0.00 in0.0 mm 0.02 in0.5 mm
12:48 PM 88.7°F31.5°C 74.5°F23.6°C 63% Calm Calm 0.7 mph1.1 kmh 29.86 in1011.2 mb 0.00 in0.0 mm 0.00 in0.0 mm 0.02 in0.5 mm
12:52 PM 88.7°F31.5°C 74.5°F23.6°C 63% Calm Calm 0.7 mph1.1 kmh 29.85 in1010.8 mb 0.00 in0.0 mm 0.00 in0.0 mm 0.02 in0.5 mm
12:59 PM 89.2°F31.8°C 75.0°F23.9°C 63% 0.4 mph S0.6 kmh S 0.4 mph0.6 kmh 29.85 in1010.8 mb 0.00 in0.0 mm 0.00 in0.0 mm 0.02 in0.5 mm
01:03 PM 89.4°F31.9°C 75.2°F24.0°C 62% 0.4 mph S0.6 kmh S 0.4 mph0.6 kmh 29.84 in1010.5 mb 0.00 in0.0 mm 0.00 in0.0 mm 0.02 in0.5 mm
01:07 PM 90.1°F32.3°C 75.8°F24.3°C 63% Calm Calm 0.4 mph0.6 kmh 29.84 in1010.5 mb 0.00 in0.0 mm 0.00 in0.0 mm 0.02 in0.5 mm
01:14 PM 90.7°F32.6°C 74.9°F23.8°C 60% Calm Calm -- 29.83 in1010.2 mb 0.00 in0.0 mm 0.00 in0.0 mm 0.02 in0.5 mm
01:18 PM 90.9°F32.7°C 74.9°F23.8°C 60% Calm Calm -- 29.83 in1010.2 mb 0.00 in0.0 mm 0.00 in0.0 mm 0.02 in0.5 mm
01:22 PM 91.2°F32.9°C 74.7°F23.7°C 59% Calm Calm -- 29.82 in1009.8 mb 0.00 in0.0 mm 0.00 in0.0 mm 0.02 in0.5 mm
01:31 PM 91.8°F33.2°C 74.3°F23.5°C 57% Calm Calm 0.7 mph1.1 kmh 29.82 in1009.8 mb 0.00 in0.0 mm 0.00 in0.0 mm 0.02 in0.5 mm
01:35 PM 91.6°F33.1°C 73.6°F23.1°C 56% 0.2 mph SSE0.3 kmh SSE 0.2 mph0.3 kmh 29.82 in1009.8 mb 0.00 in0.0 mm 0.00 in0.0 mm 0.02 in0.5 mm
01:42 PM 91.0°F32.8°C 73.1°F22.8°C 56% Calm Calm 1.3 mph2.1 kmh 29.83 in1010.2 mb 0.00 in0.0 mm 0.00 in0.0 mm 0.02 in0.5 mm
01:46 PM 90.7°F32.6°C 73.6°F23.1°C 57% Calm Calm 1.3 mph2.1 kmh 29.83 in1010.2 mb 0.00 in0.0 mm 0.00 in0.0 mm 0.02 in0.5 mm
01:52 PM 90.5°F32.5°C 73.1°F22.8°C 57% 0.4 mph SE0.6 kmh SE 1.1 mph1.8 kmh 29.83 in1010.2 mb 0.00 in0.0 mm 0.00 in0.0 mm 0.02 in0.5 mm
01:57 PM 89.8°F32.1°C 75.0°F23.9°C 62% 2.0 mph ESE3.2 kmh ESE 2.0 mph3.2 kmh 29.83 in1010.2 mb 0.00 in0.0 mm 0.00 in0.0 mm 0.02 in0.5 mm
02:03 PM 87.6°F30.9°C 74.4°F23.6°C 65% Calm Calm 2.9 mph4.7 kmh 29.83 in1010.2 mb 0.00 in0.0 mm 0.00 in0.0 mm 0.02 in0.5 mm
02:07 PM 86.5°F30.3°C 74.3°F23.5°C 67% 2.9 mph SE4.7 kmh SE 2.9 mph4.7 kmh 29.83 in1010.2 mb 0.00 in0.0 mm 0.00 in0.0 mm 0.02 in0.5 mm
02:14 PM 85.3°F29.6°C 74.1°F23.4°C 70% 2.2 mph SSE3.5 kmh SSE 2.9 mph4.7 kmh 29.82 in1009.8 mb 0.00 in0.0 mm 0.00 in0.0 mm 0.02 in0.5 mm
02:18 PM 85.3°F29.6°C 74.9°F23.8°C 71% 1.6 mph S2.6 kmh S 2.2 mph3.5 kmh 29.82 in1009.8 mb 0.00 in0.0 mm 0.00 in0.0 mm 0.02 in0.5 mm
02:24 PM 86.4°F30.2°C 74.6°F23.7°C 68% 2.0 mph E3.2 kmh E 2.0 mph3.2 kmh 29.81 in1009.5 mb 0.00 in0.0 mm 0.00 in0.0 mm 0.02 in0.5 mm
02:29 PM 87.1°F30.6°C 74.9°F23.8°C 67% 2.0 mph E3.2 kmh E 2.0 mph3.2 kmh 29.81 in1009.5 mb 0.00 in0.0 mm 0.00 in0.0 mm 0.02 in0.5 mm
02:33 PM 88.0°F31.1°C 74.7°F23.7°C 65% 0.8 mph S1.3 kmh S 2.0 mph3.2 kmh 29.80 in1009.1 mb 0.00 in0.0 mm 0.00 in0.0 mm 0.02 in0.5 mm
02:39 PM 88.9°F31.6°C 74.7°F23.7°C 63% 1.1 mph ESE1.8 kmh ESE 1.3 mph2.1 kmh 29.80 in1009.1 mb 0.00 in0.0 mm 0.00 in0.0 mm 0.02 in0.5 mm
02:44 PM 89.4°F31.9°C 75.6°F24.2°C 64% Calm Calm 1.1 mph1.8 kmh 29.80 in1009.1 mb 0.00 in0.0 mm 0.00 in0.0 mm 0.02 in0.5 mm
02:48 PM 90.0°F32.2°C 75.2°F24.0°C 62% Calm Calm 1.1 mph1.8 kmh 29.80 in1009.1 mb 0.00 in0.0 mm 0.00 in0.0 mm 0.02 in0.5 mm
02:57 PM 90.5°F32.5°C 75.2°F24.0°C 61% 1.6 mph SSW2.6 kmh SSW 1.6 mph2.6 kmh 29.80 in1009.1 mb 0.00 in0.0 mm 0.00 in0.0 mm 0.02 in0.5 mm
03:03 PM 90.9°F32.7°C 75.1°F23.9°C 60% Calm Calm 1.6 mph2.6 kmh 29.80 in1009.1 mb 0.00 in0.0 mm 0.00 in0.0 mm 0.02 in0.5 mm
03:07 PM 90.5°F32.5°C 74.2°F23.4°C 59% 1.8 mph E2.9 kmh E 1.8 mph2.9 kmh 29.80 in1009.1 mb 0.00 in0.0 mm 0.00 in0.0 mm 0.02 in0.5 mm
03:11 PM 90.1°F32.3°C 73.5°F23.1°C 59% Calm Calm 1.8 mph2.9 kmh 29.80 in1009.1 mb 0.00 in0.0 mm 0.00 in0.0 mm 0.02 in0.5 mm
03:18 PM 89.8°F32.1°C 74.1°F23.4°C 60% 0.7 mph SW1.1 kmh SW 0.7 mph1.1 kmh 29.80 in1009.1 mb 0.00 in0.0 mm 0.00 in0.0 mm 0.02 in0.5 mm
03:22 PM 89.4°F31.9°C 73.9°F23.3°C 60% 1.6 mph SW2.6 kmh SW 1.6 mph2.6 kmh 29.80 in1009.1 mb 0.00 in0.0 mm 0.00 in0.0 mm 0.02 in0.5 mm
03:29 PM 88.9°F31.6°C 74.2°F23.4°C 62% 1.1 mph SSE1.8 kmh SSE 1.6 mph2.6 kmh 29.80 in1009.1 mb 0.00 in0.0 mm 0.00 in0.0 mm 0.02 in0.5 mm
03:33 PM 88.5°F31.4°C 73.9°F23.3°C 62% Calm Calm 1.1 mph1.8 kmh 29.80 in1009.1 mb 0.00 in0.0 mm 0.00 in0.0 mm 0.02 in0.5 mm
03:37 PM 88.3°F31.3°C 73.9°F23.3°C 62% Calm Calm 1.1 mph1.8 kmh 29.79 in1008.8 mb 0.00 in0.0 mm 0.00 in0.0 mm 0.02 in0.5 mm
03:44 PM 88.0°F31.1°C 73.8°F23.2°C 63% Calm Calm 1.6 mph2.6 kmh 29.79 in1008.8 mb 0.00 in0.0 mm 0.00 in0.0 mm 0.02 in0.5 mm
03:48 PM 87.6°F30.9°C 74.1°F23.4°C 65% Calm Calm 1.6 mph2.6 kmh 29.79 in1008.8 mb 0.00 in0.0 mm 0.00 in0.0 mm 0.02 in0.5 mm
03:52 PM 87.6°F30.9°C 74.4°F23.6°C 65% Calm Calm -- 29.78 in1008.5 mb 0.00 in0.0 mm 0.00 in0.0 mm 0.02 in0.5 mm
03:59 PM 87.1°F30.6°C 74.3°F23.5°C 66% Calm Calm -- 29.78 in1008.5 mb 0.00 in0.0 mm 0.00 in0.0 mm 0.02 in0.5 mm
04:03 PM 86.9°F30.5°C 74.2°F23.4°C 66% Calm Calm -- 29.78 in1008.5 mb 0.00 in0.0 mm 0.00 in0.0 mm 0.02 in0.5 mm
04:07 PM 86.7°F30.4°C 74.0°F23.3°C 66% Calm Calm -- 29.78 in1008.5 mb 0.00 in0.0 mm 0.00 in0.0 mm 0.02 in0.5 mm
04:14 PM 86.5°F30.3°C 74.3°F23.5°C 67% Calm Calm -- 29.78 in1008.5 mb 0.00 in0.0 mm 0.00 in0.0 mm 0.02 in0.5 mm
04:18 PM 86.4°F30.2°C 74.6°F23.7°C 68% Calm Calm -- 29.78 in1008.5 mb 0.00 in0.0 mm 0.00 in0.0 mm 0.02 in0.5 mm
04:22 PM 86.4°F30.2°C 74.6°F23.7°C 68% Calm Calm -- 29.78 in1008.5 mb 0.00 in0.0 mm 0.00 in0.0 mm 0.02 in0.5 mm
04:29 PM 86.2°F30.1°C 74.9°F23.8°C 69% Calm Calm 0.4 mph0.6 kmh 29.78 in1008.5 mb 0.00 in0.0 mm 0.00 in0.0 mm 0.02 in0.5 mm
04:33 PM 86.0°F30.0°C 74.7°F23.7°C 69% Calm Calm 0.4 mph0.6 kmh 29.78 in1008.5 mb 0.00 in0.0 mm 0.00 in0.0 mm 0.02 in0.5 mm
04:39 PM 85.6°F29.8°C 74.8°F23.8°C 70% Calm Calm -- 29.78 in1008.5 mb 0.00 in0.0 mm 0.00 in0.0 mm 0.02 in0.5 mm
04:44 PM 85.5°F29.7°C 74.7°F23.7°C 70% 0.4 mph W0.6 kmh W 0.9 mph1.4 kmh 29.78 in1008.5 mb 0.00 in0.0 mm 0.00 in0.0 mm 0.02 in0.5 mm
04:48 PM 85.1°F29.5°C 75.1°F23.9°C 72% 0.9 mph WSW1.4 kmh WSW 0.9 mph1.4 kmh 29.78 in1008.5 mb 0.00 in0.0 mm 0.00 in0.0 mm 0.02 in0.5 mm
04:54 PM 83.8°F28.8°C 75.2°F24.0°C 75% Calm Calm 0.9 mph1.4 kmh 29.78 in1008.5 mb 0.00 in0.0 mm 0.00 in0.0 mm 0.02 in0.5 mm
04:59 PM 83.1°F28.4°C 74.8°F23.8°C 76% 0.7 mph SSW1.1 kmh SSW 0.7 mph1.1 kmh 29.78 in1008.5 mb 0.00 in0.0 mm 0.00 in0.0 mm 0.02 in0.5 mm
05:03 PM 82.8°F28.2°C 74.8°F23.8°C 77% Calm Calm 0.7 mph1.1 kmh 29.78 in1008.5 mb 0.00 in0.0 mm 0.00 in0.0 mm 0.02 in0.5 mm
05:09 PM 82.2°F27.9°C 74.7°F23.7°C 78% Calm Calm 0.7 mph1.1 kmh 29.78 in1008.5 mb 0.00 in0.0 mm 0.00 in0.0 mm 0.02 in0.5 mm
05:14 PM 82.2°F27.9°C 74.7°F23.7°C 78% Calm Calm -- 29.78 in1008.5 mb 0.00 in0.0 mm 0.00 in0.0 mm 0.02 in0.5 mm
05:18 PM 82.2°F27.9°C 75.1°F23.9°C 79% Calm Calm -- 29.78 in1008.5 mb 0.00 in0.0 mm 0.00 in0.0 mm 0.02 in0.5 mm
05:24 PM 82.2°F27.9°C 75.1°F23.9°C 79% Calm Calm -- 29.78 in1008.5 mb 0.00 in0.0 mm 0.00 in0.0 mm 0.02 in0.5 mm
05:29 PM 82.2°F27.9°C 75.1°F23.9°C 79% Calm Calm -- 29.78 in1008.5 mb 0.00 in0.0 mm 0.00 in0.0 mm 0.02 in0.5 mm
05:35 PM 82.6°F28.1°C 75.5°F24.2°C 79% Calm Calm -- 29.78 in1008.5 mb 0.00 in0.0 mm 0.00 in0.0 mm 0.02 in0.5 mm
05:39 PM 82.6°F28.1°C 75.1°F23.9°C 78% Calm Calm -- 29.78 in1008.5 mb 0.00 in0.0 mm 0.00 in0.0 mm 0.02 in0.5 mm
05:44 PM 82.8°F28.2°C 75.2°F24.0°C 78% Calm Calm -- 29.79 in1008.8 mb 0.00 in0.0 mm 0.00 in0.0 mm 0.02 in0.5 mm
05:50 PM 82.9°F28.3°C 75.4°F24.1°C 78% Calm Calm -- 29.78 in1008.5 mb 0.00 in0.0 mm 0.00 in0.0 mm 0.02 in0.5 mm
05:54 PM 83.1°F28.4°C 75.6°F24.2°C 78% Calm Calm -- 29.78 in1008.5 mb 0.00 in0.0 mm 0.00 in0.0 mm 0.02 in0.5 mm
06:01 PM 83.1°F28.4°C 75.6°F24.2°C 78% Calm Calm -- 29.79 in1008.8 mb 0.00 in0.0 mm 0.00 in0.0 mm 0.02 in0.5 mm
06:06 PM 82.9°F28.3°C 75.4°F24.1°C 78% Calm Calm -- 29.79 in1008.8 mb 0.00 in0.0 mm 0.00 in0.0 mm 0.02 in0.5 mm
06:11 PM 82.9°F28.3°C 75.4°F24.1°C 78% Calm Calm -- 29.79 in1008.8 mb 0.00 in0.0 mm 0.00 in0.0 mm 0.02 in0.5 mm
06:16 PM 82.9°F28.3°C 75.4°F24.1°C 78% Calm Calm -- 29.78 in1008.5 mb 0.00 in0.0 mm 0.00 in0.0 mm 0.02 in0.5 mm
06:22 PM 82.9°F28.3°C 75.4°F24.1°C 78% Calm Calm -- 29.78 in1008.5 mb 0.00 in0.0 mm 0.00 in0.0 mm 0.02 in0.5 mm
06:26 PM 82.9°F28.3°C 75.4°F24.1°C 78% Calm Calm -- 29.78 in1008.5 mb 0.00 in0.0 mm 0.00 in0.0 mm 0.02 in0.5 mm
06:33 PM 82.9°F28.3°C 75.4°F24.1°C 78% Calm Calm 0.4 mph0.6 kmh 29.78 in1008.5 mb 0.00 in0.0 mm 0.00 in0.0 mm 0.02 in0.5 mm
06:37 PM 82.9°F28.3°C 75.4°F24.1°C 78% Calm Calm 0.4 mph0.6 kmh 29.78 in1008.5 mb 0.00 in0.0 mm 0.00 in0.0 mm 0.02 in0.5 mm
06:41 PM 82.8°F28.2°C 75.7°F24.3°C 79% Calm Calm -- 29.78 in1008.5 mb 0.00 in0.0 mm 0.00 in0.0 mm 0.02 in0.5 mm
06:48 PM 82.6°F28.1°C 75.5°F24.2°C 79% Calm Calm -- 29.79 in1008.8 mb 0.00 in0.0 mm 0.00 in0.0 mm 0.02 in0.5 mm
06:52 PM 82.6°F28.1°C 75.5°F24.2°C 79% Calm Calm -- 29.80 in1009.1 mb 0.00 in0.0 mm 0.00 in0.0 mm 0.02 in0.5 mm
06:56 PM 82.2°F27.9°C 75.1°F23.9°C 79% Calm Calm -- 29.80 in1009.1 mb 0.00 in0.0 mm 0.00 in0.0 mm 0.02 in0.5 mm
07:03 PM 82.2°F27.9°C 75.1°F23.9°C 79% Calm Calm -- 29.81 in1009.5 mb 0.00 in0.0 mm 0.00 in0.0 mm 0.02 in0.5 mm
07:07 PM 82.2°F27.9°C 75.1°F23.9°C 79% Calm Calm -- 29.81 in1009.5 mb 0.00 in0.0 mm 0.00 in0.0 mm 0.02 in0.5 mm
07:14 PM 82.2°F27.9°C 75.1°F23.9°C 79% Calm Calm -- 29.81 in1009.5 mb 0.00 in0.0 mm 0.00 in0.0 mm 0.02 in0.5 mm
07:18 PM 82.2°F27.9°C 75.1°F23.9°C 79% Calm Calm -- 29.81 in1009.5 mb 0.00 in0.0 mm 0.00 in0.0 mm 0.02 in0.5 mm
07:24 PM 82.2°F27.9°C 75.1°F23.9°C 79% Calm Calm -- 29.82 in1009.8 mb 0.00 in0.0 mm 0.00 in0.0 mm 0.02 in0.5 mm
07:28 PM 82.4°F28.0°C 75.1°F23.9°C 79% Calm Calm -- 29.83 in1010.2 mb 0.00 in0.0 mm 0.00 in0.0 mm 0.02 in0.5 mm
07:33 PM 82.2°F27.9°C 75.6°F24.2°C 80% Calm Calm -- 29.83 in1010.2 mb 0.00 in0.0 mm 0.00 in0.0 mm 0.02 in0.5 mm
07:39 PM 82.2°F27.9°C 75.6°F24.2°C 80% 1.6 mph ENE2.6 kmh ENE 1.6 mph2.6 kmh 29.84 in1010.5 mb 0.00 in0.0 mm 0.00 in0.0 mm 0.02 in0.5 mm
07:43 PM 81.1°F27.3°C 74.8°F23.8°C 81% Calm Calm 1.6 mph2.6 kmh 29.84 in1010.5 mb 0.06 in1.5 mm 0.90 in22.9 mm 0.02 in0.5 mm
07:48 PM 80.2°F26.8°C 74.3°F23.5°C 82% Calm Calm 1.6 mph2.6 kmh 29.85 in1010.8 mb 0.12 in3.0 mm 0.72 in18.3 mm 0.09 in2.3 mm
07:54 PM 78.6°F25.9°C 72.7°F22.6°C 82% 0.7 mph W1.1 kmh W 1.1 mph1.8 kmh 29.84 in1010.5 mb 0.47 in11.9 mm 3.50 in88.9 mm 0.41 in10.4 mm
07:59 PM 78.1°F25.6°C 72.1°F22.3°C 82% Calm Calm 0.7 mph1.1 kmh 29.85 in1010.8 mb 0.63 in16.0 mm 1.92 in48.8 mm 0.57 in14.5 mm
08:03 PM 77.7°F25.4°C 71.8°F22.1°C 82% Calm Calm 0.7 mph1.1 kmh 29.86 in1011.2 mb 0.77 in19.6 mm 0.15 in3.8 mm 0.74 in18.8 mm
08:09 PM 77.2°F25.1°C 71.2°F21.8°C 82% Calm Calm -- 29.86 in1011.2 mb 0.90 in22.9 mm 1.30 in33.0 mm 0.92 in23.4 mm
08:13 PM 76.8°F24.9°C 70.9°F21.6°C 82% Calm Calm -- 29.86 in1011.2 mb 0.92 in23.4 mm 0.30 in7.6 mm 0.94 in23.9 mm
08:20 PM 76.6°F24.8°C 70.7°F21.5°C 82% Calm Calm -- 29.87 in1011.5 mb 0.92 in23.4 mm 0.00 in0.0 mm 0.94 in23.9 mm
08:24 PM 76.3°F24.6°C 70.4°F21.3°C 82% Calm Calm -- 29.87 in1011.5 mb 0.92 in23.4 mm 0.00 in0.0 mm 0.94 in23.9 mm
08:28 PM 76.5°F24.7°C 70.4°F21.3°C 82% Calm Calm -- 29.88 in1011.9 mb 0.92 in23.4 mm 0.00 in0.0 mm 0.94 in23.9 mm
08:35 PM 76.5°F24.7°C 70.7°F21.5°C 82% Calm Calm -- 29.88 in1011.9 mb 0.92 in23.4 mm 0.00 in0.0 mm 0.94 in23.9 mm
08:39 PM 75.9°F24.4°C 70.1°F21.2°C 82% Calm Calm -- 29.88 in1011.9 mb 0.92 in23.4 mm 0.00 in0.0 mm 0.94 in23.9 mm
08:46 PM 75.6°F24.2°C 69.9°F21.1°C 82% Calm Calm -- 29.88 in1011.9 mb 0.80 in20.3 mm 0.00 in0.0 mm 0.94 in23.9 mm
08:50 PM 75.6°F24.2°C 69.7°F20.9°C 82% Calm Calm -- 29.89 in1012.2 mb 0.55 in14.0 mm 0.00 in0.0 mm 0.96 in24.4 mm
08:54 PM 75.4°F24.1°C 69.6°F20.9°C 82% Calm Calm -- 29.89 in1012.2 mb 0.47 in11.9 mm 0.00 in0.0 mm 0.96 in24.4 mm
09:01 PM 75.0°F23.9°C 69.2°F20.7°C 82% Calm Calm -- 29.89 in1012.2 mb 0.18 in4.6 mm 0.00 in0.0 mm 0.98 in24.9 mm
09:05 PM 75.0°F23.9°C 69.2°F20.7°C 82% Calm Calm -- 29.89 in1012.2 mb 0.06 in1.5 mm 0.00 in0.0 mm 0.98 in24.9 mm
09:09 PM 75.0°F23.9°C 69.2°F20.7°C 82% Calm Calm -- 29.89 in1012.2 mb 0.04 in1.0 mm 0.00 in0.0 mm 0.98 in24.9 mm
09:15 PM 75.0°F23.9°C 69.2°F20.7°C 82% Calm Calm -- 29.89 in1012.2 mb 0.04 in1.0 mm 0.00 in0.0 mm 0.98 in24.9 mm
09:20 PM 75.0°F23.9°C 69.2°F20.7°C 82% Calm Calm -- 29.89 in1012.2 mb 0.04 in1.0 mm 0.00 in0.0 mm 0.98 in24.9 mm
09:24 PM 75.0°F23.9°C 69.2°F20.7°C 82% Calm Calm -- 29.90 in1012.5 mb 0.04 in1.0 mm 0.00 in0.0 mm 0.98 in24.9 mm
09:30 PM 74.8°F23.8°C 69.0°F20.6°C 82% Calm Calm -- 29.90 in1012.5 mb 0.04 in1.0 mm 0.00 in0.0 mm 0.98 in24.9 mm
09:35 PM 75.0°F23.9°C 69.2°F20.7°C 82% Calm Calm -- 29.90 in1012.5 mb 0.04 in1.0 mm 0.00 in0.0 mm 0.98 in24.9 mm
09:41 PM 75.0°F23.9°C 68.9°F20.5°C 81% Calm Calm -- 29.90 in1012.5 mb 0.04 in1.0 mm 0.00 in0.0 mm 0.98 in24.9 mm
09:45 PM 75.0°F23.9°C 68.9°F20.5°C 81% Calm Calm -- 29.90 in1012.5 mb 0.02 in0.5 mm 0.00 in0.0 mm 0.98 in24.9 mm
09:50 PM 75.0°F23.9°C 68.9°F20.5°C 81% Calm Calm -- 29.90 in1012.5 mb 0.02 in0.5 mm 0.00 in0.0 mm 0.98 in24.9 mm
09:56 PM 75.0°F23.9°C 68.9°F20.5°C 81% Calm Calm -- 29.90 in1012.5 mb 0.00 in0.0 mm 0.00 in0.0 mm 0.98 in24.9 mm
10:02 PM 75.0°F23.9°C 68.9°F20.5°C 81% Calm Calm -- 29.89 in1012.2 mb 0.00 in0.0 mm 0.00 in0.0 mm 0.98 in24.9 mm
10:07 PM 75.0°F23.9°C 68.9°F20.5°C 81% Calm Calm -- 29.90 in1012.5 mb 0.00 in0.0 mm 0.00 in0.0 mm 0.98 in24.9 mm
10:11 PM 74.8°F23.8°C 68.7°F20.4°C 81% Calm Calm -- 29.90 in1012.5 mb 0.00 in0.0 mm 0.00 in0.0 mm 0.98 in24.9 mm
10:17 PM 74.8°F23.8°C 68.7°F20.4°C 81% Calm Calm -- 29.90 in1012.5 mb 0.00 in0.0 mm 0.00 in0.0 mm 0.98 in24.9 mm
10:22 PM 74.8°F23.8°C 68.7°F20.4°C 81% Calm Calm -- 29.90 in1012.5 mb 0.00 in0.0 mm 0.00 in0.0 mm 0.98 in24.9 mm
10:28 PM 74.8°F23.8°C 68.7°F20.4°C 81% Calm Calm -- 29.90 in1012.5 mb 0.02 in0.5 mm 0.20 in5.1 mm 0.98 in24.9 mm
10:32 PM 74.8°F23.8°C 68.7°F20.4°C 81% Calm Calm -- 29.90 in1012.5 mb 0.02 in0.5 mm 0.00 in0.0 mm 1.00 in25.4 mm
10:39 PM 74.8°F23.8°C 68.7°F20.4°C 81% Calm Calm -- 29.89 in1012.2 mb 0.02 in0.5 mm 0.00 in0.0 mm 1.00 in25.4 mm
10:43 PM 74.8°F23.8°C 68.7°F20.4°C 81% Calm Calm -- 29.89 in1012.2 mb 0.02 in0.5 mm 0.00 in0.0 mm 1.00 in25.4 mm
10:49 PM 74.8°F23.8°C 68.7°F20.4°C 81% Calm Calm -- 29.89 in1012.2 mb 0.02 in0.5 mm 0.00 in0.0 mm 1.00 in25.4 mm
10:54 PM 74.8°F23.8°C 68.7°F20.4°C 81% Calm Calm -- 29.89 in1012.2 mb 0.04 in1.0 mm 0.24 in6.1 mm 1.00 in25.4 mm
11:00 PM 74.8°F23.8°C 68.7°F20.4°C 81% Calm Calm -- 29.89 in1012.2 mb 0.04 in1.0 mm 0.00 in0.0 mm 1.02 in25.9 mm
11:04 PM 74.8°F23.8°C 68.7°F20.4°C 81% Calm Calm -- 29.89 in1012.2 mb 0.04 in1.0 mm 0.00 in0.0 mm 1.02 in25.9 mm
11:11 PM 74.7°F23.7°C 68.7°F20.4°C 81% Calm Calm -- 29.89 in1012.2 mb 0.04 in1.0 mm 0.00 in0.0 mm 1.02 in25.9 mm
11:15 PM 74.7°F23.7°C 68.5°F20.3°C 81% Calm Calm -- 29.89 in1012.2 mb 0.04 in1.0 mm 0.00 in0.0 mm 1.02 in25.9 mm
11:19 PM 74.7°F23.7°C 68.5°F20.3°C 81% Calm Calm -- 29.89 in1012.2 mb 0.04 in1.0 mm 0.00 in0.0 mm 1.02 in25.9 mm
11:26 PM 74.7°F23.7°C 68.7°F20.4°C 81% Calm Calm -- 29.88 in1011.9 mb 0.02 in0.5 mm 0.00 in0.0 mm 1.02 in25.9 mm
11:30 PM 74.8°F23.8°C 68.7°F20.4°C 81% Calm Calm -- 29.88 in1011.9 mb 0.02 in0.5 mm 0.00 in0.0 mm 1.02 in25.9 mm
11:36 PM 74.8°F23.8°C 68.7°F20.4°C 81% Calm Calm -- 29.88 in1011.9 mb 0.02 in0.5 mm 0.00 in0.0 mm 1.02 in25.9 mm
11:41 PM 74.5°F23.6°C 68.5°F20.3°C 81% Calm Calm -- 29.88 in1011.9 mb 0.02 in0.5 mm 0.00 in0.0 mm 1.02 in25.9 mm
11:47 PM 74.8°F23.8°C 68.7°F20.4°C 81% Calm Calm -- 29.87 in1011.5 mb 0.02 in0.5 mm 0.00 in0.0 mm 1.02 in25.9 mm
11:51 PM 74.7°F23.7°C 68.5°F20.3°C 81% Calm Calm -- 29.88 in1011.9 mb 0.02 in0.5 mm 0.00 in0.0 mm 1.02 in25.9 mm
11:56 PM 74.5°F23.6°C 68.3°F20.2°C 81% Calm Calm -- 29.88 in1011.9 mb 0.00 in0.0 mm 0.00 in0.0 mm 1.02 in25.9 mm